sensor_id;sensor_type;location;lat;lon;timestamp;pressure;altitude;pressure_sealevel;temperature;humidity
42451;BME280;28080;51.138;17.170;2024-03-02T00:09:10;99330.47;;;9.25;100.00
42451;BME280;28080;51.138;17.170;2024-03-02T00:19:43;99321.10;;;9.22;100.00
42451;BME280;28080;51.138;17.170;2024-03-02T00:30:27;99321.19;;;9.21;100.00
42451;BME280;28080;51.138;17.170;2024-03-02T00:41:05;99318.55;;;9.21;100.00
42451;BME280;28080;51.138;17.170;2024-03-02T00:51:33;99312.10;;;9.21;100.00
42451;BME280;28080;51.138;17.170;2024-03-02T01:01:59;99309.08;;;9.19;100.00
42451;BME280;28080;51.138;17.170;2024-03-02T01:12:18;99309.86;;;9.18;100.00
42451;BME280;28080;51.138;17.170;2024-03-02T01:22:43;99312.02;;;9.12;100.00
42451;BME280;28080;51.138;17.170;2024-03-02T01:33:09;99312.83;;;9.01;100.00
42451;BME280;28080;51.138;17.170;2024-03-02T01:43:34;99317.94;;;8.87;100.00
42451;BME280;28080;51.138;17.170;2024-03-02T01:53:59;99313.50;;;8.76;100.00
42451;BME280;28080;51.138;17.170;2024-03-02T02:04:25;99313.02;;;8.70;100.00
42451;BME280;28080;51.138;17.170;2024-03-02T02:14:52;99311.41;;;8.68;100.00
42451;BME280;28080;51.138;17.170;2024-03-02T02:25:17;99310.04;;;8.63;100.00
42451;BME280;28080;51.138;17.170;2024-03-02T02:35:43;99304.52;;;8.55;100.00
42451;BME280;28080;51.138;17.170;2024-03-02T02:46:08;99285.81;;;8.43;100.00
42451;BME280;28080;51.138;17.170;2024-03-02T02:56:33;99264.42;;;8.31;100.00
42451;BME280;28080;51.138;17.170;2024-03-02T03:06:58;99269.27;;;8.22;100.00
42451;BME280;28080;51.138;17.170;2024-03-02T03:17:24;99277.51;;;8.11;100.00
42451;BME280;28080;51.138;17.170;2024-03-02T03:27:49;99283.86;;;8.07;100.00
42451;BME280;28080;51.138;17.170;2024-03-02T03:38:16;99295.73;;;8.12;100.00
42451;BME280;28080;51.138;17.170;2024-03-02T03:48:41;99301.34;;;8.17;100.00
42451;BME280;28080;51.138;17.170;2024-03-02T03:59:06;99292.70;;;8.18;100.00
42451;BME280;28080;51.138;17.170;2024-03-02T04:09:32;99296.13;;;8.14;100.00
42451;BME280;28080;51.138;17.170;2024-03-02T04:19:57;99298.05;;;8.14;100.00
42451;BME280;28080;51.138;17.170;2024-03-02T04:30:22;99306.43;;;8.18;100.00
42451;BME280;28080;51.138;17.170;2024-03-02T04:40:47;99306.16;;;8.25;100.00
42451;BME280;28080;51.138;17.170;2024-03-02T04:51:12;99305.30;;;8.22;100.00
42451;BME280;28080;51.138;17.170;2024-03-02T05:01:37;99317.30;;;8.15;100.00
42451;BME280;28080;51.138;17.170;2024-03-02T05:12:03;99323.04;;;8.07;100.00
42451;BME280;28080;51.138;17.170;2024-03-02T05:22:46;99326.06;;;8.01;100.00
42451;BME280;28080;51.138;17.170;2024-03-02T05:33:13;99333.27;;;7.92;100.00
42451;BME280;28080;51.138;17.170;2024-03-02T05:43:38;99344.46;;;7.83;100.00
42451;BME280;28080;51.138;17.170;2024-03-02T05:54:03;99350.75;;;7.77;100.00
42451;BME280;28080;51.138;17.170;2024-03-02T06:04:28;99353.16;;;7.72;100.00
42451;BME280;28080;51.138;17.170;2024-03-02T06:14:53;99367.94;;;7.70;100.00
42451;BME280;28080;51.138;17.170;2024-03-02T06:25:19;99376.73;;;7.69;100.00
42451;BME280;28080;51.138;17.170;2024-03-02T06:35:44;99385.64;;;7.68;100.00
42451;BME280;28080;51.138;17.170;2024-03-02T06:46:09;99394.31;;;7.69;100.00
42451;BME280;28080;51.138;17.170;2024-03-02T06:56:31;99397.88;;;7.70;100.00
42451;BME280;28080;51.138;17.170;2024-03-02T07:06:56;99399.13;;;7.75;100.00
42451;BME280;28080;51.138;17.170;2024-03-02T07:17:21;99403.41;;;7.87;100.00
42451;BME280;28080;51.138;17.170;2024-03-02T07:27:47;99413.39;;;7.97;100.00
42451;BME280;28080;51.138;17.170;2024-03-02T07:38:12;99414.10;;;8.15;100.00
42451;BME280;28080;51.138;17.170;2024-03-02T07:48:37;99431.38;;;8.44;100.00
42451;BME280;28080;51.138;17.170;2024-03-02T07:59:03;99431.46;;;8.72;100.00
42451;BME280;28080;51.138;17.170;2024-03-02T08:09:28;99440.46;;;9.03;100.00
42451;BME280;28080;51.138;17.170;2024-03-02T08:19:54;99436.43;;;9.38;100.00
42451;BME280;28080;51.138;17.170;2024-03-02T08:30:19;99434.69;;;9.76;100.00
42451;BME280;28080;51.138;17.170;2024-03-02T08:40:45;99437.20;;;10.11;100.00
42451;BME280;28080;51.138;17.170;2024-03-02T08:51:11;99424.08;;;10.42;100.00
42451;BME280;28080;51.138;17.170;2024-03-02T09:01:36;99424.77;;;10.75;99.85
42451;BME280;28080;51.138;17.170;2024-03-02T09:12:06;99430.55;;;11.03;99.14
42451;BME280;28080;51.138;17.170;2024-03-02T09:22:31;99433.72;;;11.20;97.07
42451;BME280;28080;51.138;17.170;2024-03-02T09:32:56;99432.91;;;11.31;96.07
42451;BME280;28080;51.138;17.170;2024-03-02T09:43:22;99425.84;;;11.45;94.56
42451;BME280;28080;51.138;17.170;2024-03-02T09:53:48;99424.33;;;11.62;94.28
42451;BME280;28080;51.138;17.170;2024-03-02T10:04:14;99423.60;;;11.77;92.77
42451;BME280;28080;51.138;17.170;2024-03-02T10:14:39;99424.10;;;11.89;90.37
42451;BME280;28080;51.138;17.170;2024-03-02T10:25:00;99417.37;;;11.98;89.82
42451;BME280;28080;51.138;17.170;2024-03-02T10:35:26;99409.29;;;12.12;88.87
42451;BME280;28080;51.138;17.170;2024-03-02T10:45:51;99403.09;;;12.23;88.09
42451;BME280;28080;51.138;17.170;2024-03-02T10:56:22;99397.03;;;12.31;87.85
42451;BME280;28080;51.138;17.170;2024-03-02T11:06:52;99402.02;;;12.40;87.07
42451;BME280;28080;51.138;17.170;2024-03-02T11:17:19;99405.89;;;12.51;84.98
42451;BME280;28080;51.138;17.170;2024-03-02T11:28:03;99401.36;;;12.61;85.01
42451;BME280;28080;51.138;17.170;2024-03-02T11:38:36;99388.55;;;12.73;83.55
42451;BME280;28080;51.138;17.170;2024-03-02T11:49:01;99385.37;;;12.84;81.78
42451;BME280;28080;51.138;17.170;2024-03-02T11:59:26;99388.45;;;12.87;81.20
42451;BME280;28080;51.138;17.170;2024-03-02T12:10:00;99391.36;;;12.90;80.34
42451;BME280;28080;51.138;17.170;2024-03-02T12:20:27;99390.91;;;12.95;79.70
42451;BME280;28080;51.138;17.170;2024-03-02T12:30:53;99382.93;;;13.04;79.33
42451;BME280;28080;51.138;17.170;2024-03-02T12:41:18;99380.00;;;13.14;77.75
42451;BME280;28080;51.138;17.170;2024-03-02T12:51:44;99379.44;;;13.22;78.39
42451;BME280;28080;51.138;17.170;2024-03-02T13:02:19;99375.61;;;13.34;79.56
42451;BME280;28080;51.138;17.170;2024-03-02T13:12:44;99370.84;;;13.45;78.50
42451;BME280;28080;51.138;17.170;2024-03-02T13:23:10;99368.60;;;13.50;77.71
42451;BME280;28080;51.138;17.170;2024-03-02T13:33:35;99366.95;;;13.53;76.29
42451;BME280;28080;51.138;17.170;2024-03-02T13:44:00;99363.01;;;13.52;76.61
42451;BME280;28080;51.138;17.170;2024-03-02T13:54:26;99366.67;;;13.50;76.08
42451;BME280;28080;51.138;17.170;2024-03-02T14:04:51;99376.39;;;13.43;75.82
42451;BME280;28080;51.138;17.170;2024-03-02T14:15:17;99384.92;;;13.37;76.46
42451;BME280;28080;51.138;17.170;2024-03-02T14:25:43;99383.95;;;13.29;76.73
42451;BME280;28080;51.138;17.170;2024-03-02T14:36:02;99383.39;;;13.20;76.69
42451;BME280;28080;51.138;17.170;2024-03-02T14:46:28;99387.77;;;13.07;77.31
42451;BME280;28080;51.138;17.170;2024-03-02T14:56:53;99388.12;;;12.93;78.03
42451;BME280;28080;51.138;17.170;2024-03-02T15:07:14;99381.86;;;12.80;78.77
42451;BME280;28080;51.138;17.170;2024-03-02T15:17:40;99380.27;;;12.70;79.34
42451;BME280;28080;51.138;17.170;2024-03-02T15:28:06;99377.81;;;12.59;80.08
42451;BME280;28080;51.138;17.170;2024-03-02T15:38:31;99382.67;;;12.49;80.78
42451;BME280;28080;51.138;17.170;2024-03-02T15:48:56;99379.06;;;12.42;81.80
42451;BME280;28080;51.138;17.170;2024-03-02T15:59:25;99378.30;;;12.37;82.38
42451;BME280;28080;51.138;17.170;2024-03-02T16:09:50;99373.34;;;12.27;82.51
42451;BME280;28080;51.138;17.170;2024-03-02T16:20:15;99369.32;;;12.14;82.47
42451;BME280;28080;51.138;17.170;2024-03-02T16:30:33;99370.63;;;12.05;82.78
42451;BME280;28080;51.138;17.170;2024-03-02T16:40:59;99374.22;;;11.95;83.01
42451;BME280;28080;51.138;17.170;2024-03-02T16:51:24;99374.31;;;11.83;83.40
42451;BME280;28080;51.138;17.170;2024-03-02T17:01:49;99375.67;;;11.74;83.74
42451;BME280;28080;51.138;17.170;2024-03-02T17:12:14;99376.61;;;11.63;84.06
42451;BME280;28080;51.138;17.170;2024-03-02T17:22:39;99376.83;;;11.51;84.48
42451;BME280;28080;51.138;17.170;2024-03-02T17:33:05;99382.20;;;11.39;85.33
42451;BME280;28080;51.138;17.170;2024-03-02T17:43:30;99381.38;;;11.25;86.21
42451;BME280;28080;51.138;17.170;2024-03-02T17:53:55;99376.69;;;11.11;87.04
42451;BME280;28080;51.138;17.170;2024-03-02T18:04:20;99378.87;;;10.97;88.12
42451;BME280;28080;51.138;17.170;2024-03-02T18:14:45;99382.30;;;10.84;88.92
42451;BME280;28080;51.138;17.170;2024-03-02T18:25:11;99384.95;;;10.75;89.70
42451;BME280;28080;51.138;17.170;2024-03-02T18:35:36;99385.73;;;10.68;90.55
42451;BME280;28080;51.138;17.170;2024-03-02T18:46:02;99382.48;;;10.65;91.46
42451;BME280;28080;51.138;17.170;2024-03-02T18:56:27;99374.54;;;10.59;91.73
42451;BME280;28080;51.138;17.170;2024-03-02T19:06:52;99375.13;;;10.52;91.95
42451;BME280;28080;51.138;17.170;2024-03-02T19:17:18;99380.66;;;10.45;92.18
42451;BME280;28080;51.138;17.170;2024-03-02T19:27:43;99386.52;;;10.40;92.14
42451;BME280;28080;51.138;17.170;2024-03-02T19:38:08;99385.04;;;10.34;91.98
42451;BME280;28080;51.138;17.170;2024-03-02T19:48:33;99383.27;;;10.30;91.50
42451;BME280;28080;51.138;17.170;2024-03-02T19:58:58;99377.25;;;10.25;90.84
42451;BME280;28080;51.138;17.170;2024-03-02T20:09:24;99380.54;;;10.19;90.14
42451;BME280;28080;51.138;17.170;2024-03-02T20:19:49;99377.96;;;10.11;89.75
42451;BME280;28080;51.138;17.170;2024-03-02T20:30:15;99381.60;;;10.10;90.16
42451;BME280;28080;51.138;17.170;2024-03-02T20:40:40;99383.00;;;10.09;91.19
42451;BME280;28080;51.138;17.170;2024-03-02T20:51:08;99380.12;;;10.08;91.50
42451;BME280;28080;51.138;17.170;2024-03-02T21:01:33;99379.77;;;10.08;91.87
42451;BME280;28080;51.138;17.170;2024-03-02T21:11:58;99380.71;;;10.10;91.96
42451;BME280;28080;51.138;17.170;2024-03-02T21:22:26;99379.90;;;10.09;92.06
42451;BME280;28080;51.138;17.170;2024-03-02T21:32:52;99385.45;;;10.07;92.13
42451;BME280;28080;51.138;17.170;2024-03-02T21:43:17;99388.30;;;10.04;92.25
42451;BME280;28080;51.138;17.170;2024-03-02T21:53:37;99388.92;;;10.00;92.37
42451;BME280;28080;51.138;17.170;2024-03-02T22:04:02;99387.23;;;9.95;92.78
42451;BME280;28080;51.138;17.170;2024-03-02T22:14:19;99388.94;;;9.88;93.47
42451;BME280;28080;51.138;17.170;2024-03-02T22:24:45;99387.89;;;9.83;93.81
42451;BME280;28080;51.138;17.170;2024-03-02T22:35:12;99390.51;;;9.76;94.06
42451;BME280;28080;51.138;17.170;2024-03-02T22:45:37;99384.48;;;9.70;94.24
42451;BME280;28080;51.138;17.170;2024-03-02T22:56:03;99381.93;;;9.64;94.82
42451;BME280;28080;51.138;17.170;2024-03-02T23:06:28;99378.61;;;9.59;95.46
42451;BME280;28080;51.138;17.170;2024-03-02T23:16:53;99371.84;;;9.59;96.02
42451;BME280;28080;51.138;17.170;2024-03-02T23:27:18;99378.30;;;9.61;96.44
42451;BME280;28080;51.138;17.170;2024-03-02T23:37:43;99374.77;;;9.64;96.56
42451;BME280;28080;51.138;17.170;2024-03-02T23:48:10;99364.19;;;9.66;96.71
42451;BME280;28080;51.138;17.170;2024-03-02T23:58:43;99357.70;;;9.66;96.66
